Fabre, Canada
Current Conditions -  °F | °C
As of 5:02 PM on Monday 20 Oct 2014 (Local Time) from CYXR Reporting Station
Light Rain Light Rain  
Wind Chill: 34°   Ceiling: 1400
Heat Index: 39°   Visibility: 6mi
Dew Point: 39°   Wind: 7mph
Humidity: 100%   Direction: 40°NE
Pressure: 29.84"   Gusts: NA
Location:  47.2°N, 79.37°W
Report Text: CYXR 202102Z AUTO 04006KT 6SM -RA BR FEW008 OVC014 04/04 A2984 RMK TS/LTNG TEMPO UNAVBL SLP114
Loading
Personal Weather Stations






























Interactive Weather Map New forecast layout! Learn more

10-Day Weather Forecast

Advertisements
Track Severe Weather on mobile